Time;durP1;ratioP1;P1;durP2;ratioP2;P2;SDS_P1;SDS_P2;PMS_P1;PMS_P2;Temp;Humidity;BMP_temperature;BMP_pressure;BME280_temperature;BME280_humidity;BME280_pressure;Samples;Min_cycle;Max_cycle;Signal;HPM_P1;HPM_P2
2023/07/29 00:01:09;;;;;;;1.92;1.05;;;17.80;99.90;;;;;;6292030;22;20015;-88
2023/07/29 00:03:35;;;;;;;2.38;1.20;;;17.80;99.90;;;;;;6312037;22;20015;-89
2023/07/29 00:06:01;;;;;;;1.95;1.20;;;17.90;99.90;;;;;;6255585;22;20019;-89
2023/07/29 00:08:27;;;;;;;2.05;1.17;;;17.90;99.90;;;;;;6280320;22;20023;-87
2023/07/29 00:10:52;;;;;;;2.47;1.00;;;17.90;99.90;;;;;;6280887;22;20349;-88
2023/07/29 00:13:18;;;;;;;1.73;1.08;;;18.00;99.90;;;;;;6281727;22;20429;-89
2023/07/29 00:15:44;;;;;;;4.75;1.10;;;17.90;99.90;;;;;;6255168;22;20015;-90
2023/07/29 00:18:10;;;;;;;1.55;1.10;;;18.00;99.90;;;;;;6308185;22;20018;-89
2023/07/29 00:20:35;;;;;;;2.40;1.33;;;18.00;99.90;;;;;;6280742;22;20022;-88
2023/07/29 00:23:02;;;;;;;2.72;1.27;;;18.00;99.90;;;;;;6281116;22;20012;-88
2023/07/29 00:25:28;;;;;;;2.05;1.05;;;18.00;99.90;;;;;;6281476;22;20011;-89
2023/07/29 00:27:58;;;;;;;1.50;1.00;;;18.00;99.90;;;;;;6258016;22;20064;-88
2023/07/29 00:30:23;;;;;;;2.97;1.20;;;18.00;99.90;;;;;;6311575;22;20023;-91
2023/07/29 00:32:49;;;;;;;1.88;1.30;;;18.10;99.90;;;;;;6283177;22;20140;-88
2023/07/29 00:35:15;;;;;;;1.70;0.90;;;18.10;99.90;;;;;;6255042;22;20015;-89
2023/07/29 00:37:41;;;;;;;1.58;0.93;;;18.10;99.90;;;;;;6280440;22;20460;-88
2023/07/29 00:40:16;;;;;;;1.95;0.98;;;18.10;99.90;;;;;;6280612;22;20073;-88
2023/07/29 00:42:42;;;;;;;2.13;1.27;;;18.10;99.90;;;;;;6280942;22;20019;-88
2023/07/29 00:45:09;;;;;;;2.72;1.23;;;18.10;99.90;;;;;;6280784;22;20068;-89
2023/07/29 00:47:35;;;;;;;2.13;1.38;;;18.10;99.90;;;;;;6280131;22;20016;-88
2023/07/29 00:50:01;;;;;;;2.10;1.10;;;18.20;99.90;;;;;;6280376;22;20091;-88
2023/07/29 00:52:27;;;;;;;1.98;1.23;;;18.20;99.90;;;;;;6307982;22;20011;-88
2023/07/29 00:54:53;;;;;;;2.33;1.20;;;18.10;99.90;;;;;;6280168;22;20038;-88
2023/07/29 00:57:20;;;;;;;2.03;1.20;;;18.20;99.90;;;;;;6279878;22;20011;-89
2023/07/29 00:59:46;;;;;;;2.55;1.10;;;18.20;99.90;;;;;;6279268;22;20388;-89
2023/07/29 01:02:12;;;;;;;1.45;0.90;;;18.20;99.90;;;;;;6254400;22;20094;-88
2023/07/29 01:04:38;;;;;;;3.05;1.42;;;18.20;99.90;;;;;;6254547;22;20015;-89
2023/07/29 01:07:21;;;;;;;1.95;1.10;;;18.20;99.90;;;;;;6254762;22;20026;-89
2023/07/29 01:10:01;;;;;;;2.20;1.30;;;18.20;99.90;;;;;;6279632;22;20046;-87
2023/07/29 01:12:48;;;;;;;4.30;2.15;;;18.20;99.90;;;;;;6279900;22;20042;-89
2023/07/29 01:15:27;;;;;;;3.10;2.20;;;18.30;99.90;;;;;;6254393;22;20020;-88
2023/07/29 01:17:56;;;;;;;4.05;1.80;;;18.30;99.90;;;;;;6279757;22;20011;-89
2023/07/29 01:20:25;;;;;;;3.28;1.98;;;18.30;99.90;;;;;;6254065;22;20401;-89
2023/07/29 01:22:51;;;;;;;2.95;1.35;;;18.30;99.90;;;;;;6254461;22;20065;-88
2023/07/29 01:25:17;;;;;;;2.28;1.20;;;18.30;99.90;;;;;;6279726;22;20019;-89
2023/07/29 01:27:44;;;;;;;2.42;1.65;;;18.30;99.90;;;;;;6253891;22;20496;-89
2023/07/29 01:30:11;;;;;;;1.75;1.40;;;18.30;99.90;;;;;;6279569;22;20019;-88
2023/07/29 01:32:56;;;;;;;3.28;1.60;;;18.30;99.90;;;;;;6279746;22;20458;-88
2023/07/29 01:35:32;;;;;;;2.40;1.40;;;18.30;99.90;;;;;;6279839;22;20019;-88
2023/07/29 01:38:31;;;;;;;2.78;1.42;;;18.30;99.90;;;;;;6279289;22;20041;-88
2023/07/29 01:40:59;;;;;;;6.35;1.58;;;18.30;99.90;;;;;;6280042;22;20115;-88
2023/07/29 01:43:25;;;;;;;4.43;1.92;;;18.30;99.90;;;;;;6279468;22;20046;-88
2023/07/29 01:45:54;;;;;;;6.43;2.22;;;18.30;99.90;;;;;;6307407;22;20037;-89
2023/07/29 01:48:20;;;;;;;3.25;2.28;;;18.30;99.90;;;;;;6279896;22;20182;-88
2023/07/29 01:50:46;;;;;;;3.95;1.95;;;18.20;99.90;;;;;;6307134;22;20015;-88
2023/07/29 01:53:11;;;;;;;3.28;1.55;;;18.20;99.90;;;;;;6254212;22;20045;-88
2023/07/29 01:55:37;;;;;;;3.33;2.40;;;18.20;99.90;;;;;;6278609;22;20023;-87
2023/07/29 01:58:03;;;;;;;5.13;2.78;;;18.10;99.90;;;;;;6279318;22;20023;-88
2023/07/29 02:00:29;;;;;;;3.30;2.10;;;18.10;99.90;;;;;;6307193;22;20015;-87
2023/07/29 02:02:54;;;;;;;2.17;1.52;;;18.10;99.90;;;;;;6307205;22;20011;-88
2023/07/29 02:05:22;;;;;;;5.30;2.60;;;18.10;99.90;;;;;;6279837;22;20050;-87
2023/07/29 02:07:48;;;;;;;3.42;1.92;;;18.00;99.90;;;;;;6279755;22;20058;-88
2023/07/29 02:10:14;;;;;;;3.10;2.03;;;18.00;99.90;;;;;;6279713;22;20016;-87
2023/07/29 02:12:39;;;;;;;3.70;2.45;;;18.00;99.90;;;;;;6280001;22;20015;-88
2023/07/29 02:15:06;;;;;;;3.65;2.38;;;18.00;99.90;;;;;;6279706;22;20022;-88
2023/07/29 02:17:31;;;;;;;4.63;1.88;;;17.90;99.90;;;;;;6306840;22;20506;-87
2023/07/29 02:19:59;;;;;;;4.97;2.03;;;17.90;99.90;;;;;;6279556;22;20051;-88
2023/07/29 02:22:25;;;;;;;4.90;2.58;;;17.90;99.90;;;;;;6279329;22;20462;-88
2023/07/29 02:24:51;;;;;;;3.35;2.03;;;17.80;99.90;;;;;;6279318;22;20023;-88
2023/07/29 02:27:16;;;;;;;3.90;2.05;;;17.80;99.90;;;;;;6253662;22;20019;-87
2023/07/29 02:29:42;;;;;;;3.40;2.00;;;17.80;99.90;;;;;;6249343;22;20020;-88
2023/07/29 02:32:08;;;;;;;5.10;2.47;;;17.80;99.90;;;;;;6275776;22;20023;-87
2023/07/29 02:34:34;;;;;;;3.45;2.10;;;17.70;99.90;;;;;;6250922;22;20024;-88
2023/07/29 02:37:00;;;;;;;4.50;1.98;;;17.70;99.90;;;;;;6278394;22;20438;-87
2023/07/29 02:39:26;;;;;;;4.72;1.75;;;17.70;99.90;;;;;;6276354;22;20016;-88
2023/07/29 02:41:58;;;;;;;2.65;1.52;;;17.70;99.90;;;;;;6250902;22;20019;-89
2023/07/29 02:44:27;;;;;;;3.83;1.90;;;17.70;99.90;;;;;;6251150;22;20073;-88
2023/07/29 02:46:54;;;;;;;3.20;2.22;;;17.60;99.90;;;;;;6276457;22;20030;-89
2023/07/29 02:49:20;;;;;;;3.30;2.15;;;17.60;99.90;;;;;;6276448;22;20015;-88
2023/07/29 02:51:46;;;;;;;2.97;1.90;;;17.50;99.90;;;;;;6278574;22;20022;-89
2023/07/29 02:54:14;;;;;;;2.85;1.85;;;17.50;99.90;;;;;;6277953;22;20016;-88
2023/07/29 02:56:40;;;;;;;2.97;1.58;;;17.50;99.90;;;;;;6251007;22;20019;-89
2023/07/29 02:59:08;;;;;;;3.92;1.38;;;17.50;99.90;;;;;;6251634;22;20016;-89
2023/07/29 03:01:34;;;;;;;3.75;2.08;;;17.50;99.90;;;;;;6278707;22;20044;-88
2023/07/29 03:04:00;;;;;;;2.63;1.52;;;17.50;99.90;;;;;;6276247;22;20019;-87
2023/07/29 03:06:28;;;;;;;4.00;2.20;;;17.50;99.90;;;;;;6276219;22;20016;-88
2023/07/29 03:08:54;;;;;;;2.63;1.30;;;17.40;99.90;;;;;;6250509;22;20051;-88
2023/07/29 03:11:20;;;;;;;3.55;2.13;;;17.40;99.90;;;;;;6275839;22;20023;-88
2023/07/29 03:13:46;;;;;;;3.55;1.58;;;17.40;99.90;;;;;;6277889;22;20043;-88
2023/07/29 03:16:17;;;;;;;4.45;2.00;;;17.30;99.90;;;;;;6278083;22;20048;-88
2023/07/29 03:18:44;;;;;;;2.53;1.70;;;17.40;99.90;;;;;;6275959;22;20015;-89
2023/07/29 03:21:10;;;;;;;2.45;1.70;;;17.30;99.90;;;;;;6278003;22;20024;-88
2023/07/29 03:23:38;;;;;;;4.82;2.38;;;17.30;99.90;;;;;;6276412;22;20018;-88
2023/07/29 03:26:09;;;;;;;3.03;1.90;;;17.30;99.90;;;;;;6275827;22;20016;-88
2023/07/29 03:28:38;;;;;;;2.42;1.27;;;17.30;99.90;;;;;;6283915;22;20438;-88
2023/07/29 03:31:03;;;;;;;2.63;1.70;;;17.20;99.90;;;;;;6308741;22;20016;-88
2023/07/29 03:33:29;;;;;;;3.03;1.65;;;17.20;99.90;;;;;;6308844;22;20061;-88
2023/07/29 03:35:55;;;;;;;3.88;1.70;;;17.20;99.90;;;;;;6255280;22;20023;-88
2023/07/29 03:38:24;;;;;;;4.20;1.67;;;17.10;99.90;;;;;;6280695;22;20019;-88
2023/07/29 03:44:31;;;;;;;2.72;1.42;;;17.20;99.90;;;;;;6308394;22;20053;-89
2023/07/29 03:46:57;;;;;;;3.50;1.88;;;17.10;99.90;;;;;;6280869;22;20058;-88
2023/07/29 03:49:23;;;;;;;5.13;2.30;;;17.10;99.90;;;;;;6308658;22;20038;-88
2023/07/29 03:51:48;;;;;;;5.55;1.73;;;17.10;99.90;;;;;;6255344;22;20038;-87
2023/07/29 03:54:14;;;;;;;3.25;1.58;;;17.00;99.90;;;;;;6280885;22;20022;-87
2023/07/29 03:56:40;;;;;;;1.67;1.20;;;17.00;99.90;;;;;;6308514;22;20140;-87
2023/07/29 03:59:06;;;;;;;2.10;1.20;;;17.00;99.90;;;;;;6281637;22;20022;-87
2023/07/29 04:01:34;;;;;;;3.53;1.85;;;17.00;99.90;;;;;;6283241;22;20130;-87
2023/07/29 04:04:00;;;;;;;3.58;1.98;;;16.80;99.90;;;;;;6262229;22;20024;-87
2023/07/29 04:06:29;;;;;;;2.95;1.50;;;17.00;99.90;;;;;;6284688;22;20029;-89
2023/07/29 04:08:57;;;;;;;4.35;1.83;;;16.90;99.90;;;;;;6256323;22;20081;-87
2023/07/29 04:11:23;;;;;;;3.33;1.17;;;17.00;99.90;;;;;;6281114;22;20389;-88
2023/07/29 04:13:51;;;;;;;3.55;1.92;;;17.00;99.90;;;;;;6281430;22;20015;-87
2023/07/29 04:16:19;;;;;;;3.58;1.70;;;16.90;99.90;;;;;;6254803;22;20019;-88
2023/07/29 04:18:47;;;;;;;3.13;1.52;;;16.90;99.90;;;;;;6255211;22;20019;-88
2023/07/29 04:21:13;;;;;;;2.35;1.42;;;16.90;99.90;;;;;;6281072;22;20022;-89
2023/07/29 04:23:40;;;;;;;2.60;1.73;;;16.90;99.90;;;;;;6280945;22;20008;-86
2023/07/29 04:26:05;;;;;;;2.63;1.48;;;16.90;99.90;;;;;;6280926;22;20012;-87
2023/07/29 04:28:34;;;;;;;3.15;1.30;;;16.90;99.90;;;;;;6256315;22;20329;-88
2023/07/29 04:31:02;;;;;;;3.78;1.90;;;17.00;99.90;;;;;;6281691;22;20059;-87
2023/07/29 04:33:29;;;;;;;1.92;1.25;;;17.00;99.90;;;;;;6309751;22;20018;-87
2023/07/29 04:35:55;;;;;;;2.38;1.42;;;17.00;99.90;;;;;;6308539;22;20016;-88
2023/07/29 04:38:21;;;;;;;4.03;1.58;;;17.00;99.90;;;;;;6254844;22;20026;-87
2023/07/29 04:40:49;;;;;;;3.78;1.42;;;17.00;99.90;;;;;;6280265;22;20397;-87
2023/07/29 04:43:14;;;;;;;3.63;1.55;;;17.10;99.90;;;;;;6254699;22;20023;-86
2023/07/29 04:45:44;;;;;;;3.17;1.35;;;17.10;99.90;;;;;;6280626;22;20029;-86
2023/07/29 04:48:09;;;;;;;3.72;1.70;;;17.10;99.90;;;;;;6280543;22;20019;-87
2023/07/29 04:50:40;;;;;;;3.60;1.70;;;17.10;99.90;;;;;;6280214;22;20327;-88
2023/07/29 04:53:06;;;;;;;2.50;1.40;;;17.10;99.90;;;;;;6280621;22;20015;-87
2023/07/29 04:55:34;;;;;;;2.78;1.63;;;17.10;99.90;;;;;;6280321;22;20437;-88
2023/07/29 04:58:00;;;;;;;3.35;1.45;;;17.20;99.90;;;;;;6254755;22;20446;-88
2023/07/29 05:00:25;;;;;;;2.60;1.40;;;17.20;99.90;;;;;;6254806;22;20072;-88
2023/07/29 05:02:51;;;;;;;2.05;1.00;;;17.20;99.90;;;;;;6254906;22;20042;-87
2023/07/29 05:05:17;;;;;;;4.50;1.30;;;17.30;99.90;;;;;;6308055;22;20027;-86
2023/07/29 05:07:43;;;;;;;2.30;1.00;;;17.30;99.90;;;;;;6280566;22;20041;-88
2023/07/29 05:10:11;;;;;;;2.00;1.10;;;17.30;99.90;;;;;;6254598;22;20030;-87
2023/07/29 05:12:37;;;;;;;2.15;1.20;;;17.50;99.90;;;;;;6280849;22;20019;-87
2023/07/29 05:15:03;;;;;;;2.00;0.75;;;17.40;99.90;;;;;;6280702;22;20023;-87
2023/07/29 05:17:28;;;;;;;5.07;1.10;;;17.40;99.90;;;;;;6280331;22;20011;-88
2023/07/29 05:19:56;;;;;;;3.33;1.00;;;17.40;99.90;;;;;;6254757;22;20090;-88
2023/07/29 05:22:22;;;;;;;3.08;0.85;;;17.50;99.90;;;;;;6280411;22;20465;-87
2023/07/29 05:24:51;;;;;;;3.05;1.08;;;17.50;99.90;;;;;;6280316;22;20015;-86
2023/07/29 05:27:18;;;;;;;3.00;1.00;;;17.50;99.90;;;;;;6280087;22;20461;-86
2023/07/29 05:29:44;;;;;;;2.00;1.13;;;17.50;99.90;;;;;;6249045;22;20026;-87
2023/07/29 05:32:13;;;;;;;1.67;0.80;;;17.50;99.90;;;;;;6224363;22;20515;-88
2023/07/29 05:34:38;;;;;;;1.42;0.85;;;17.50;99.90;;;;;;6249996;22;20519;-87
2023/07/29 05:37:05;;;;;;;2.15;0.85;;;17.50;99.90;;;;;;6274819;22;20016;-88
2023/07/29 05:39:32;;;;;;;1.85;0.73;;;17.60;99.90;;;;;;6249693;22;20026;-88
2023/07/29 05:42:02;;;;;;;1.35;0.80;;;17.60;99.90;;;;;;6249371;22;20094;-87
2023/07/29 05:44:30;;;;;;;1.25;0.70;;;17.60;99.90;;;;;;6249328;22;20087;-88
2023/07/29 05:46:56;;;;;;;0.95;0.77;;;17.60;99.90;;;;;;6276635;22;20051;-87
2023/07/29 05:49:21;;;;;;;1.55;0.80;;;17.70;99.90;;;;;;6249336;22;20016;-89
2023/07/29 05:51:48;;;;;;;1.98;0.77;;;17.70;99.90;;;;;;6274929;22;20435;-88
2023/07/29 05:54:14;;;;;;;1.77;0.73;;;17.70;99.90;;;;;;6249378;22;20047;-88
2023/07/29 05:56:40;;;;;;;1.75;0.80;;;17.70;99.90;;;;;;6274860;22;20026;-88
2023/07/29 05:59:05;;;;;;;1.42;0.75;;;17.80;99.90;;;;;;6276686;22;20016;-88
2023/07/29 06:01:32;;;;;;;2.95;0.82;;;17.80;99.90;;;;;;6276174;22;20461;-87
2023/07/29 06:03:57;;;;;;;1.98;0.90;;;17.80;99.90;;;;;;6274828;22;20020;-89
2023/07/29 06:06:44;;;;;;;1.60;0.88;;;17.90;99.90;;;;;;6248720;22;20018;-89
2023/07/29 06:09:10;;;;;;;2.33;1.10;;;17.90;99.90;;;;;;6275687;22;20450;-89
2023/07/29 06:11:38;;;;;;;1.55;0.65;;;17.80;99.90;;;;;;6249104;22;20109;-89
2023/07/29 06:14:03;;;;;;;2.33;0.95;;;17.90;99.90;;;;;;6274307;22;20054;-88
2023/07/29 06:16:29;;;;;;;2.80;1.00;;;17.90;99.90;;;;;;6274908;22;20338;-88
2023/07/29 06:18:58;;;;;;;2.65;0.90;;;17.90;99.90;;;;;;6248971;22;20043;-88
2023/07/29 06:21:23;;;;;;;3.90;1.08;;;17.90;99.90;;;;;;6273950;22;20058;-88
2023/07/29 06:23:49;;;;;;;2.78;0.85;;;18.00;99.90;;;;;;6274506;22;20011;-87
2023/07/29 06:26:15;;;;;;;1.50;1.00;;;18.00;99.90;;;;;;6248731;22;20019;-87
2023/07/29 06:28:41;;;;;;;1.80;0.80;;;18.00;99.90;;;;;;6280849;22;20022;-87
2023/07/29 06:31:06;;;;;;;2.50;1.17;;;18.10;99.90;;;;;;6254054;22;20019;-89
2023/07/29 06:33:35;;;;;;;2.17;1.10;;;18.10;99.90;;;;;;6280279;22;20094;-89
2023/07/29 06:36:03;;;;;;;3.08;0.90;;;18.20;99.90;;;;;;6279506;22;20069;-89
2023/07/29 06:38:29;;;;;;;1.33;0.70;;;18.20;99.90;;;;;;6279946;22;20090;-88
2023/07/29 06:40:55;;;;;;;2.65;0.73;;;18.40;99.90;;;;;;6306674;22;20054;-88
2023/07/29 06:43:21;;;;;;;1.60;0.98;;;18.60;99.90;;;;;;6306955;22;20027;-87
2023/07/29 06:45:47;;;;;;;1.42;0.70;;;18.70;99.90;;;;;;6279613;22;20465;-87
2023/07/29 06:48:12;;;;;;;3.13;0.95;;;18.80;99.90;;;;;;6307423;22;20019;-89
2023/07/29 06:50:38;;;;;;;6.57;1.00;;;19.00;99.90;;;;;;6254330;22;20026;-87
2023/07/29 06:53:04;;;;;;;3.35;1.23;;;19.00;99.90;;;;;;6306847;22;20090;-88
2023/07/29 06:55:30;;;;;;;4.32;1.17;;;19.10;99.90;;;;;;6279588;22;20011;-89
2023/07/29 06:57:56;;;;;;;3.47;1.20;;;19.10;99.90;;;;;;6278956;22;20011;-88
2023/07/29 07:00:24;;;;;;;1.45;0.90;;;19.10;99.90;;;;;;6306831;22;20015;-88
2023/07/29 07:02:49;;;;;;;2.47;0.80;;;19.10;99.90;;;;;;6306199;22;20367;-88
2023/07/29 07:09:01;;;;;;;3.22;1.00;;;19.20;99.90;;;;;;6258436;22;20023;-91
2023/07/29 07:12:18;;;;;;;;;;;;;;;;;;;;;
2023/07/29 07:14:44;;;;;;;;;;;19.50;99.90;;;;;;6199893;22;20035;-91
2023/07/29 07:17:10;;;;;;;;;;;19.70;99.90;;;;;;6252157;22;20325;-91
2023/07/29 07:19:46;;;;;;;2.55;0.80;;;19.70;99.90;;;;;;6252469;22;19976;-90
2023/07/29 07:28:52;;;;;;;;;;;;;;;;;;;;;
2023/07/29 07:47:57;;;;;;;;;;;;;;;;;;;;;
2023/07/29 07:50:51;;;;;;;4.97;0.75;;;20.20;99.90;;;;;;6277584;22;20480;-91
2023/07/29 07:53:20;;;;;;;2.47;1.00;;;20.40;99.90;;;;;;6279987;22;20022;-88
2023/07/29 07:55:46;;;;;;;2.90;1.17;;;20.40;99.90;;;;;;6280841;22;20019;-86
2023/07/29 07:58:12;;;;;;;2.08;0.90;;;20.50;99.90;;;;;;6308474;22;20034;-88
2023/07/29 08:00:37;;;;;;;2.40;0.73;;;20.50;99.90;;;;;;6308243;22;20015;-86
2023/07/29 08:03:03;;;;;;;3.30;0.93;;;20.50;99.90;;;;;;6308290;22;20023;-88
2023/07/29 08:05:29;;;;;;;4.07;1.10;;;20.60;99.90;;;;;;6281872;22;20500;-87
2023/07/29 08:07:55;;;;;;;1.30;0.70;;;20.60;99.90;;;;;;6308226;22;20023;-86
2023/07/29 08:10:21;;;;;;;4.53;0.95;;;20.70;99.90;;;;;;6255456;22;20081;-86
2023/07/29 08:12:47;;;;;;;2.72;0.75;;;20.70;99.90;;;;;;6280622;22;20338;-85
2023/07/29 08:15:13;;;;;;;1.17;0.63;;;20.90;99.90;;;;;;6280230;22;20011;-86
2023/07/29 08:17:38;;;;;;;3.58;1.00;;;21.00;99.90;;;;;;6308131;22;20038;-84
2023/07/29 08:20:04;;;;;;;4.28;1.02;;;21.20;99.90;;;;;;6280785;22;20441;-85
2023/07/29 08:22:30;;;;;;;2.25;0.60;;;21.40;99.90;;;;;;6280614;22;20413;-86
2023/07/29 08:24:56;;;;;;;3.67;0.90;;;21.60;99.90;;;;;;6255472;22;20015;-85
2023/07/29 08:27:21;;;;;;;1.52;0.80;;;21.60;99.90;;;;;;6307823;22;20053;-84
2023/07/29 08:29:47;;;;;;;4.28;0.82;;;21.80;99.90;;;;;;6255175;22;20429;-85
2023/07/29 08:32:13;;;;;;;2.72;0.70;;;21.90;99.90;;;;;;6255102;22;20034;-84
2023/07/29 08:34:38;;;;;;;2.78;0.93;;;21.90;99.90;;;;;;6281359;22;20438;-85
2023/07/29 08:37:04;;;;;;;1.35;0.60;;;22.00;99.90;;;;;;6281003;22;20077;-85
2023/07/29 08:39:30;;;;;;;2.47;0.60;;;22.10;99.90;;;;;;6308108;22;20093;-84
2023/07/29 08:42:07;;;;;;;4.30;0.90;;;22.20;99.90;;;;;;6280458;22;20050;-85
2023/07/29 08:44:43;;;;;;;2.00;0.68;;;22.20;99.90;;;;;;6254575;22;20098;-86
2023/07/29 08:47:09;;;;;;;3.63;1.08;;;22.10;99.90;;;;;;6279894;22;20019;-84
2023/07/29 08:49:36;;;;;;;2.95;0.80;;;22.10;99.90;;;;;;6279587;22;20090;-85
2023/07/29 08:52:04;;;;;;;3.05;0.75;;;22.10;99.90;;;;;;6280096;22;20022;-85
2023/07/29 08:54:29;;;;;;;2.53;0.60;;;22.30;99.90;;;;;;6307083;22;20576;-85
2023/07/29 08:56:56;;;;;;;2.40;0.80;;;22.40;99.90;;;;;;6254728;22;20047;-85
2023/07/29 08:59:22;;;;;;;2.63;0.63;;;22.40;99.90;;;;;;6279700;22;20345;-85
2023/07/29 09:01:48;;;;;;;3.72;1.30;;;22.40;99.90;;;;;;6306883;22;20015;-85
2023/07/29 09:04:13;;;;;;;4.47;0.70;;;22.50;99.90;;;;;;6280352;22;20023;-88
2023/07/29 09:06:41;;;;;;;2.58;0.60;;;22.50;99.90;;;;;;6307281;22;20049;-85
2023/07/29 09:09:08;;;;;;;1.10;0.55;;;22.60;99.90;;;;;;6280526;22;20023;-86
2023/07/29 09:11:33;;;;;;;1.35;0.40;;;22.90;99.90;;;;;;6307152;22;20019;-85
2023/07/29 09:13:59;;;;;;;2.03;0.60;;;23.10;99.90;;;;;;6280083;22;20046;-85
2023/07/29 09:16:25;;;;;;;3.70;0.50;;;23.30;99.90;;;;;;6279465;22;20455;-86
2023/07/29 09:18:52;;;;;;;1.63;0.75;;;23.50;99.90;;;;;;6279294;22;20011;-86
2023/07/29 09:21:23;;;;;;;1.27;0.60;;;23.60;99.90;;;;;;6279426;22;20054;-85
2023/07/29 09:23:50;;;;;;;3.17;0.75;;;23.90;99.90;;;;;;6306124;22;20438;-85
2023/07/29 09:26:27;;;;;;;0.93;0.50;;;23.70;99.90;;;;;;6279569;22;20015;-86
2023/07/29 09:28:54;;;;;;;2.10;0.50;;;23.70;99.90;;;;;;6307543;22;20011;-86
2023/07/29 09:31:22;;;;;;;1.17;0.50;;;23.60;99.90;;;;;;6279387;22;20042;-86
2023/07/29 09:33:49;;;;;;;0.98;0.50;;;23.70;99.90;;;;;;6306841;22;20015;-86
2023/07/29 09:36:14;;;;;;;1.10;0.50;;;23.70;99.90;;;;;;6279840;22;20023;-85
2023/07/29 09:38:40;;;;;;;3.53;0.50;;;23.70;99.90;;;;;;6254685;22;20012;-85
2023/07/29 09:41:06;;;;;;;1.33;0.50;;;23.80;99.90;;;;;;6253980;22;20016;-86
2023/07/29 09:43:34;;;;;;;2.10;0.50;;;23.90;99.90;;;;;;6307033;22;20095;-86
2023/07/29 09:46:01;;;;;;;3.22;0.57;;;24.10;99.90;;;;;;6306936;22;20019;-84
2023/07/29 09:48:30;;;;;;;2.83;0.40;;;24.10;99.90;;;;;;6307567;22;20023;-87
2023/07/29 09:50:56;;;;;;;2.45;0.50;;;24.10;99.90;;;;;;6307180;22;20094;-87
2023/07/29 09:53:22;;;;;;;3.33;0.45;;;24.00;99.90;;;;;;6307616;22;20100;-88
2023/07/29 09:55:54;;;;;;;1.35;0.40;;;23.90;99.90;;;;;;6279942;22;20090;-87
2023/07/29 09:58:27;;;;;;;1.48;1.05;;;23.60;99.90;;;;;;6280043;22;20015;-87
2023/07/29 10:00:53;;;;;;;2.38;0.40;;;23.70;99.90;;;;;;6307680;22;20322;-86
2023/07/29 10:03:21;;;;;;;1.15;0.30;;;23.80;99.90;;;;;;6280370;22;20468;-91
2023/07/29 10:06:26;;;;;;;1.00;0.40;;;23.70;99.90;;;;;;6279377;22;20012;-90
2023/07/29 10:08:59;;;;;;;1.63;0.30;;;23.90;99.90;;;;;;6280799;22;20089;-93
2023/07/29 10:11:49;;;;;;;0.43;0.20;;;24.10;99.90;;;;;;6274991;22;20359;-89
2023/07/29 10:17:43;;;;;;;0.77;0.40;;;24.50;99.90;;;;;;6286603;22;20454;-93
2023/07/29 10:33:04;;;;;;;1.27;0.32;;;25.00;99.90;;;;;;6265694;22;20019;-90
2023/07/29 10:35:32;;;;;;;1.08;0.28;;;24.90;99.90;;;;;;6255164;22;20473;-87
2023/07/29 10:38:05;;;;;;;2.58;0.65;;;24.90;99.90;;;;;;6281272;22;20016;-88
2023/07/29 10:41:03;;;;;;;0.80;0.30;;;25.00;99.90;;;;;;6280438;22;20068;-90
2023/07/29 10:43:33;;;;;;;2.03;0.40;;;25.10;99.90;;;;;;6162905;23;20454;-87
2023/07/29 10:46:21;;;;;;;0.95;0.30;;;25.20;99.90;;;;;;6187908;22;20024;-88
2023/07/29 10:48:57;;;;;;;3.00;0.40;;;25.20;99.90;;;;;;6212326;23;20498;-87
2023/07/29 10:51:26;;;;;;;2.40;0.90;;;25.20;99.90;;;;;;6161149;23;20100;-84
2023/07/29 10:53:54;;;;;;;0.88;0.20;;;24.90;99.90;;;;;;6213573;23;20058;-83
2023/07/29 10:56:30;;;;;;;0.75;0.22;;;25.20;99.90;;;;;;6188364;23;20094;-84
2023/07/29 10:58:57;;;;;;;1.42;0.30;;;25.20;99.90;;;;;;6188438;23;20017;-85
2023/07/29 11:01:32;;;;;;;1.95;0.28;;;25.00;99.90;;;;;;6188405;23;20103;-85
2023/07/29 11:04:19;;;;;;;3.40;0.40;;;24.80;99.90;;;;;;6188893;23;20016;-85
2023/07/29 11:07:03;;;;;;;0.30;0.20;;;24.70;99.90;;;;;;6164099;23;20012;-84
2023/07/29 11:09:51;;;;;;;3.13;0.40;;;24.60;99.90;;;;;;6188793;23;20024;-84
2023/07/29 11:12:34;;;;;;;2.13;0.30;;;24.60;99.90;;;;;;6188767;23;20027;-85
2023/07/29 11:15:14;;;;;;;1.50;0.47;;;24.30;99.90;;;;;;6214171;23;20471;-85
2023/07/29 11:17:43;;;;;;;1.15;0.30;;;24.30;99.90;;;;;;6188930;23;20111;-85
2023/07/29 11:20:09;;;;;;;1.88;0.30;;;24.20;99.90;;;;;;6303587;22;20019;-84
2023/07/29 11:22:36;;;;;;;2.63;0.30;;;24.00;99.90;;;;;;6255288;22;20062;-84
2023/07/29 11:25:03;;;;;;;1.02;0.43;;;23.90;99.90;;;;;;6308608;22;20091;-85
2023/07/29 11:27:28;;;;;;;1.05;0.40;;;23.80;99.90;;;;;;6255385;22;20068;-84
2023/07/29 11:30:02;;;;;;;2.10;0.50;;;23.60;99.90;;;;;;6281016;22;20019;-86
2023/07/29 11:32:28;;;;;;;3.13;0.50;;;23.30;99.90;;;;;;6255337;22;20442;-85
2023/07/29 11:34:54;;;;;;;0.88;0.40;;;22.70;99.90;;;;;;6255125;22;20019;-84
2023/07/29 11:37:22;;;;;;;0.47;0.20;;;22.20;99.90;;;;;;6308050;22;20449;-84
2023/07/29 11:39:48;;;;;;;1.20;0.40;;;22.10;99.90;;;;;;6281182;22;20015;-84
2023/07/29 11:42:15;;;;;;;4.32;0.28;;;22.00;99.90;;;;;;6280808;22;20070;-84
2023/07/29 11:44:41;;;;;;;0.63;0.30;;;22.10;99.90;;;;;;6281073;22;20098;-84
2023/07/29 11:47:11;;;;;;;1.65;0.30;;;22.10;99.90;;;;;;6308194;22;20015;-85
2023/07/29 11:49:39;;;;;;;2.85;0.40;;;22.20;99.90;;;;;;6280633;22;20065;-85
2023/07/29 11:52:10;;;;;;;1.30;0.28;;;22.50;99.90;;;;;;6281088;22;20019;-85
2023/07/29 11:54:37;;;;;;;1.13;0.35;;;22.70;99.90;;;;;;6307936;22;20018;-85
2023/07/29 11:57:07;;;;;;;1.00;0.30;;;22.90;99.90;;;;;;6255261;22;20019;-85
2023/07/29 11:59:34;;;;;;;2.50;0.50;;;23.00;99.90;;;;;;6280761;22;20015;-85
2023/07/29 12:02:14;;;;;;;1.23;0.40;;;23.10;99.90;;;;;;6280715;22;20019;-85
2023/07/29 12:04:41;;;;;;;0.98;0.45;;;23.30;99.90;;;;;;6254905;22;20019;-85
2023/07/29 12:07:07;;;;;;;2.70;0.50;;;23.30;99.90;;;;;;6280570;22;20019;-85
2023/07/29 12:09:35;;;;;;;1.83;0.50;;;23.30;99.90;;;;;;6255057;22;20042;-85
2023/07/29 12:12:06;;;;;;;1.27;0.30;;;23.00;99.90;;;;;;6280880;22;20021;-85
2023/07/29 12:14:32;;;;;;;3.10;0.40;;;22.90;99.90;;;;;;6280500;22;20392;-85
2023/07/29 12:17:04;;;;;;;1.63;0.50;;;22.80;99.90;;;;;;6280466;22;20058;-85
2023/07/29 12:19:39;;;;;;;2.25;0.35;;;22.80;99.90;;;;;;6308304;22;20334;-85
2023/07/29 12:22:06;;;;;;;4.05;0.63;;;22.90;99.90;;;;;;6280216;22;20465;-85
2023/07/29 12:24:33;;;;;;;1.75;0.52;;;23.00;99.90;;;;;;6255005;22;20353;-85
2023/07/29 12:27:00;;;;;;;1.38;0.47;;;23.00;99.90;;;;;;6307770;22;20055;-84
2023/07/29 12:29:26;;;;;;;1.13;0.30;;;22.90;99.90;;;;;;6280547;22;20011;-84
2023/07/29 12:32:00;;;;;;;3.13;0.57;;;22.90;99.90;;;;;;6308249;22;20090;-85
2023/07/29 12:34:30;;;;;;;4.18;0.40;;;22.90;99.90;;;;;;6254682;22;20099;-84
2023/07/29 12:36:58;;;;;;;1.40;0.40;;;22.90;99.90;;;;;;6307633;22;20346;-85
2023/07/29 12:39:29;;;;;;;1.00;0.30;;;22.80;99.90;;;;;;6280733;22;20353;-85
2023/07/29 12:41:56;;;;;;;1.35;0.40;;;23.00;99.90;;;;;;6280508;22;20022;-85
2023/07/29 12:44:30;;;;;;;0.73;0.40;;;23.30;99.90;;;;;;6307938;22;20016;-85
2023/07/29 12:46:56;;;;;;;0.50;0.30;;;23.60;99.90;;;;;;6280663;22;20505;-85
2023/07/29 12:49:22;;;;;;;2.88;0.50;;;23.80;99.90;;;;;;6280323;22;20047;-86
2023/07/29 12:51:48;;;;;;;0.82;0.30;;;23.70;99.90;;;;;;6307926;22;20050;-85
2023/07/29 12:54:14;;;;;;;0.88;0.30;;;23.60;99.90;;;;;;6280208;22;20019;-84
2023/07/29 12:56:40;;;;;;;0.73;0.30;;;23.60;99.90;;;;;;6280345;22;20051;-85
2023/07/29 12:59:06;;;;;;;1.42;0.30;;;23.60;99.90;;;;;;6307677;22;20022;-85
2023/07/29 13:01:31;;;;;;;1.65;0.40;;;23.70;99.90;;;;;;6307838;22;20061;-85
2023/07/29 13:03:57;;;;;;;0.50;0.30;;;23.60;99.90;;;;;;6280205;22;20023;-84
2023/07/29 13:06:23;;;;;;;0.82;0.40;;;23.60;99.90;;;;;;6279936;22;20022;-85
2023/07/29 13:08:49;;;;;;;2.25;0.68;;;23.50;99.90;;;;;;6280452;22;20345;-85
2023/07/29 13:11:16;;;;;;;2.30;0.43;;;23.30;99.90;;;;;;6280145;22;20015;-85
2023/07/29 13:13:41;;;;;;;1.25;0.47;;;23.20;99.90;;;;;;6307576;22;20094;-85
2023/07/29 13:16:07;;;;;;;1.10;0.45;;;23.20;99.90;;;;;;6307227;22;20058;-85
2023/07/29 13:18:33;;;;;;;0.40;0.28;;;23.10;99.90;;;;;;6280216;22;20094;-85
2023/07/29 13:21:00;;;;;;;0.60;0.30;;;23.00;99.90;;;;;;6307640;22;20085;-85
2023/07/29 13:23:26;;;;;;;0.70;0.30;;;23.00;99.90;;;;;;6307444;22;20041;-85
2023/07/29 13:25:52;;;;;;;1.35;0.40;;;23.00;99.90;;;;;;6279795;22;20011;-85
2023/07/29 13:28:18;;;;;;;1.90;0.75;;;23.20;99.90;;;;;;6279765;22;20015;-85
2023/07/29 13:30:44;;;;;;;0.40;0.30;;;23.70;99.90;;;;;;6279993;22;20015;-85
2023/07/29 13:33:10;;;;;;;2.47;0.30;;;23.80;99.90;;;;;;6253959;22;20512;-86
2023/07/29 13:35:36;;;;;;;2.15;0.30;;;23.60;99.90;;;;;;6253106;22;20026;-84
2023/07/29 13:38:02;;;;;;;1.83;0.30;;;23.50;99.90;;;;;;6307399;22;20011;-85
2023/07/29 13:40:28;;;;;;;2.60;0.40;;;23.30;99.90;;;;;;6307449;22;20041;-85
2023/07/29 13:42:54;;;;;;;2.05;0.43;;;23.20;99.90;;;;;;6254357;22;20012;-85